Latest METARs, TAFs and NOTAMs for LSGG


---------------------------------------------------------------------------
	(OBSERVATIONS)
LSGG 250950Z 05016KT 9999 FEW050 21/10 Q1020 NOSIG=
LSGG 250920Z 05017KT 9999 FEW050 20/10 Q1020 NOSIG=
LSGG 250850Z 05016KT 9999 FEW045 20/10 Q1020 NOSIG=
LSGG 250820Z 04014KT 9999 FEW040 19/10 Q1020 NOSIG=
LSGG 250750Z 05015KT 9999 FEW040 18/10 Q1019 NOSIG=
LSGG 250720Z 04015KT 9999 FEW040 18/10 Q1020 NOSIG=
---------------------------------------------------------------------------
	(FC)
Sorry, FC For LSGG Not Found
---------------------------------------------------------------------------
	(TERMINAL AREA FORECAST)
LSGG 250825Z 2509/2615 04015KT 9999 FEW040 TX24/2515Z
    TN12/2604Z TX26/2615Z
    BECMG 2518/2520 04005KT CAVOK
    BECMG 2607/2609 04015KT=
---------------------------------------------------------------------------
	(NOTAMS)


LSGG A0205/18 REF LSGG AIP AD 2.24.4-3 AND AD 2-6 AOC - TYPE
    A - RWY 23 NEW TEMPO OBST '2BIS' CRANE 454M 1490FT 461316N0060507E.
    03 MAY 04:00 2018 UNTIL 19 JUL 23:59 2018 ESTIMATED. CREATED:
    27 APR 10:52 2018

LSGG A0212/18 REF IFR SUP 011/17 AND VFR SUP 010/17: EXP MOBILE
    CRANES WI CONST AREA AND PSN 17, 18, 19. ALL MARKED AND LGTD.
    GND, 131.0FT AGL / 1511.0 AMSL. 30 APR 22:00 2018 UNTIL 18
    JUL 21:59 2018 ESTIMATED. CREATED: 30 APR 16:42 2018

LSGG A0216/18 TFC SUSPENDED DUE TO NTL DAY FIREWORKS IN AD VCY.
    EXP UP TO 20 MIN DLA. 01 AUG 20:00 2018 UNTIL 01 AUG 20:20
    2018. CREATED: 04 MAY 14:08 2018

LSGG A0235/18 CRANE 3.1KM 218DEG GEO ARP LSGG, MARKED, LGTD,
    461259N0060505E, 31.0M / 101.8FT AGL, 471.4M / 1546.3FT AMSL.
    24 MAY 07:28 2018 UNTIL 14 JUN 23:59 2019 ESTIMATED. CREATED:
    24 MAY 07:28 2018

LSGG A0258/18 PRKG PSN P48 CLSD. 04 JUN 06:00 2018 UNTIL 15 AUG
    21:59 2018. CREATED: 01 JUN 08:34 2018

LSGG A0265/18 RWY 05/23 CLSD AFT LAST SKED FLT DUE TO WIP. NO
    EVACUATION POSS. AD NOT TO BE PLANNED AS ALTN. SUN-THU 2200-0359,
    17 JUN 22:00 2018 UNTIL 03 AUG 03:59 2018. CREATED: 07 JUN
    07:52 2018

LSGG A0270/18 MOBILE CRANE 7.6KM 231DEG GEO ARP LSGG, MARKED,
    LGTD, 461141N0060157E, 117.0M / 383.9FT AGL, 487.0M / 1597.8FT
    AMSL. 09 JUN 04:43 2018 UNTIL 28 JUL 23:59 2018 ESTIMATED.
    CREATED: 09 JUN 04:43 2018

LSGG A0271/18 FIREWORKS 2 NM NE OF GENEVA AD (461500.16N0060914.43E).
    MAX 500FT AGL / 1800FT AMSL. 28 JUN 20:30 2018 UNTIL 28 JUN
    20:50 2018. CREATED: 11 JUN 08:16 2018

LSGG A0275/18 GENEVA DVOR/DME GVA 115.750 U/S DUE TO MAINT. 03
    JUL 07:00 2018 UNTIL 03 JUL 14:00 2018. CREATED: 12 JUN 07:59
    2018

LSGG A0276/18 PASSEIRY DVOR/DME PAS 116.600 U/S DUE TO MAINT.
    05 JUL 07:00 2018 UNTIL 05 JUL 14:00 2018. CREATED: 12 JUN
    08:00 2018

LSGG A0284/18 RWY 05 ILS INE 110.900 AND RWY 23 ILS ISW 109.900
    U/S DUE TO MAINT. AVBL O/R WI 15 MIN. 12 JUL 21:30 2018 UNTIL
    13 JUL 01:00 2018. CREATED: 14 JUN 09:10 2018

LSGG A0291/18 ST PREX DVOR/DME SPR 113.900 U/S DUE TO MAINT.
    17 JUL 07:00 2018 UNTIL 17 JUL 12:00 2018. CREATED: 19 JUN
    10:55 2018

LSGG A0292/18 FRIBOURG VOR/DME FRI 110.850 U/S DUE TO MAINT.
    18 JUL 07:00 2018 UNTIL 18 JUL 15:00 2018. CREATED: 19 JUN
    11:30 2018

LSGG A0298/18 MOBILE CRANE 1.9KM 055DEG GEO ARP LSGG, MARKED,
    LGTD, 461452N0060744E, 46.0M / 151.0FT AGL, 452.0M / 1483.0FT
    AMSL. 23 JUN 04:29 2018 UNTIL 26 AUG 23:59 2018 ESTIMATED.
    CREATED: 23 JUN 04:29 2018

LSGG B0267/18 ACFT AND HEL USING LSGG VFR RTE W, NW OR N MUST
    ACT THEIR TRANSPONDERS (MODE A/C/S) AS FLW: 1)UNTIL MID-DOWNWIND
    FOR LSGG ARR. 2)WITHIN CTR FOR TRANSITS. ATC MAY INSTRUCT
    PILOT TO SWITCH OFF TRANSPONDER AT ANY TIME. 16 MAR 15:00
    2018 UNTIL 30 JUN 22:00 2018. CREATED: 16 MAR 14:50 2018

LSGG B0747/18 ACFT AND HEL USING LSGG VFR RTE W, NW OR N MUST
    ACT THEIR TRANSPONDERS (MODE A/C/S) AS FLW: 1)TIL MID-DOWNWIND
    FOR LSGG ARR. 2)WI CTR FOR TRANSITS. ATC MAY INSTRUCT PILOT
    TO SWITCH OFF TRANSPONDER AT ANY TIME. 01 JUL 04:00 2018
    UNTIL 31 OCT 22:00 2018. CREATED: 22 JUN 13:36 2018

---------------------------------------------------------------------------